EDDK/CGN METAR and TAF weather

Enter ICAO airport designator
Station Type Date Time Source
EDDK METAR 2021/04/14 19:20 UTC NOAA

EDDK 141920Z 06004KT 9999 FEW040 04/M01 Q1029 NOSIG


Station Type Date Time Source
EDDK Decoded METAR 2021/04/14 19:20 UTC NOAA

Koeln / Bonn, Germany (EDDK) 50-52N 007-10E 100M
Apr 14, 2021 - 03:20 PM EDT / 2021.04.14 1920 UTC
Wind: from the ENE (060 degrees) at 5 MPH (4 KT):0
Visibility: greater than 7 mile(s):0
Sky conditions: mostly clear
Temperature: 39 F (4 C)
Dew Point: 30 F (-1 C)
Relative Humidity: 69%
Pressure (altimeter): 30.39 in. Hg (1029 hPa)
ob: EDDK 141920Z 06004KT 9999 FEW040 04/M01 Q1029 NOSIG
cycle: 19

Station Type Date Time Source
EDDK TAF 2021/04/14 18:27 UTC NOAA

TAF EDDK 141700Z 1418/1524 35006KT 9999 SCT030
BECMG 1418/1421 VRB03KT PROB30
TEMPO 1505/1507 4000 BR
BECMG 1507/1509 03008KT
BECMG 1519/1521 04003KT

Example: see airport list